createdAt,value
2018-07-17T00:01:14.382Z,100802.64
2018-07-17T00:03:51.550Z,100806.13
2018-07-17T00:06:24.803Z,100803.11
2018-07-17T00:09:02.234Z,100807.51
2018-07-17T00:11:33.142Z,100806.52
2018-07-17T00:14:04.565Z,100811.19
2018-07-17T00:16:36.189Z,100806.28
2018-07-17T00:19:06.472Z,100806.55
2018-07-17T00:21:36.658Z,100812.98
2018-07-17T00:24:07.003Z,100811.67
2018-07-17T00:26:37.564Z,100799.13
2018-07-17T00:29:08.680Z,100797.84
2018-07-17T00:31:39.140Z,100798.55
2018-07-17T00:34:10.146Z,100802.35
2018-07-17T00:36:40.960Z,100792.94
2018-07-17T00:39:14.140Z,100791.65
2018-07-17T00:41:45.218Z,100794.25
2018-07-17T00:44:15.439Z,100796.37
2018-07-17T00:46:47.467Z,100792.31
2018-07-17T00:49:17.957Z,100792.59
2018-07-17T00:54:53.109Z,100788.91
2018-07-17T00:57:27.986Z,100793.34
2018-07-17T01:00:01.767Z,100789.48
2018-07-17T01:02:42.106Z,100749.77
2018-07-17T01:05:17.289Z,100794.31
2018-07-17T01:07:52.884Z,100799.41
2018-07-17T01:10:28.196Z,100798.06
2018-07-17T01:12:57.629Z,100795.34
2018-07-17T01:15:32.025Z,100795.03
2018-07-17T01:18:04.244Z,100789.96
2018-07-17T01:20:37.464Z,100780.25
2018-07-17T01:23:08.124Z,100784.86
2018-07-17T01:25:38.810Z,100781.23
2018-07-17T01:28:09.440Z,100775.63
2018-07-17T01:30:42.648Z,100781.00
2018-07-17T01:33:13.062Z,100778.06
2018-07-17T01:35:43.426Z,100772.37
2018-07-17T01:38:14.242Z,100770.64
2018-07-17T01:40:46.160Z,100766.16
2018-07-17T01:43:18.280Z,100769.49
2018-07-17T01:45:49.103Z,100769.71
2018-07-17T01:48:19.364Z,100765.58
2018-07-17T01:50:49.745Z,100768.05
2018-07-17T01:53:21.365Z,100766.93
2018-07-17T01:55:53.490Z,100769.24
2018-07-17T01:58:26.459Z,100774.17
2018-07-17T02:00:59.683Z,100774.02
2018-07-17T02:03:31.792Z,100768.81
2018-07-17T02:06:02.748Z,100769.36
2018-07-17T02:08:35.115Z,100779.68
2018-07-17T02:11:06.567Z,100779.60
2018-07-17T02:13:37.850Z,100777.95
2018-07-17T02:16:08.988Z,100766.95
2018-07-17T02:18:39.689Z,100772.63
2018-07-17T02:21:10.657Z,100760.58
2018-07-17T02:23:41.595Z,100765.68
2018-07-17T02:26:12.693Z,100768.99
2018-07-17T02:28:43.854Z,100772.70
2018-07-17T02:31:14.869Z,100775.97
2018-07-17T02:33:45.535Z,100771.14
2018-07-17T02:36:16.305Z,100771.73
2018-07-17T02:38:47.053Z,100765.66
2018-07-17T02:41:18.562Z,100762.44
2018-07-17T02:43:49.773Z,100763.88
2018-07-17T02:46:23.709Z,100761.70
2018-07-17T02:48:54.295Z,100759.40
2018-07-17T02:51:25.428Z,100764.48
2018-07-17T02:53:56.524Z,100769.20
2018-07-17T02:56:26.724Z,100767.69
2018-07-17T02:58:57.485Z,100772.70
2018-07-17T03:01:28.515Z,100772.60
2018-07-17T03:04:00.285Z,100770.24
2018-07-17T03:06:31.191Z,100773.53
2018-07-17T03:09:01.921Z,100776.35
2018-07-17T03:11:32.134Z,100774.36
2018-07-17T03:14:02.510Z,100776.75
2018-07-17T03:16:33.333Z,100773.00
2018-07-17T03:19:03.908Z,100780.75
2018-07-17T03:21:38.569Z,100791.93
2018-07-17T03:24:09.093Z,100793.44
2018-07-17T03:26:39.714Z,100800.86
2018-07-17T03:29:10.373Z,100799.52
2018-07-17T03:31:41.415Z,100807.95
2018-07-17T03:34:11.914Z,100810.69
2018-07-17T03:36:42.151Z,100817.09
2018-07-17T03:39:12.493Z,100830.90
2018-07-17T03:41:42.728Z,100829.94
2018-07-17T03:44:13.311Z,100823.75
2018-07-17T03:46:44.073Z,100821.84
2018-07-17T03:49:15.153Z,100826.02
2018-07-17T03:51:46.299Z,100838.13
2018-07-17T03:54:18.437Z,100829.97
2018-07-17T03:56:48.961Z,100830.01
2018-07-17T03:59:19.278Z,100844.09
2018-07-17T04:01:50.553Z,100823.05
2018-07-17T04:04:21.475Z,100828.75
2018-07-17T04:06:51.703Z,100842.53
2018-07-17T04:09:21.829Z,100839.31
2018-07-17T04:11:54.066Z,100823.42
2018-07-17T04:14:26.006Z,100831.00
2018-07-17T04:16:58.374Z,100830.45
2018-07-17T04:19:29.774Z,100827.48
2018-07-17T04:22:00.767Z,100830.91
2018-07-17T04:24:31.371Z,100834.07
2018-07-17T04:27:01.511Z,100839.69
2018-07-17T04:29:31.873Z,100842.88
2018-07-17T04:32:05.034Z,100847.81
2018-07-17T04:34:35.353Z,100851.21
2018-07-17T04:37:05.541Z,100848.36
2018-07-17T04:39:36.221Z,100849.95
2018-07-17T04:42:08.171Z,100866.96
2018-07-17T04:44:40.471Z,100862.72
2018-07-17T04:47:12.698Z,100855.20
2018-07-17T04:49:43.144Z,100854.45
2018-07-17T04:52:13.334Z,100859.67
2018-07-17T04:54:44.490Z,100867.45
2018-07-17T04:57:14.675Z,100862.91
2018-07-17T04:59:45.040Z,100865.13
2018-07-17T05:02:17.671Z,100868.80
2018-07-17T05:04:48.881Z,100879.78
2018-07-17T05:07:20.325Z,100885.03
2018-07-17T05:09:52.184Z,100886.23
2018-07-17T05:12:23.342Z,100887.28
2018-07-17T05:14:54.409Z,100882.77
2018-07-17T05:17:25.961Z,100883.31
2018-07-17T05:19:56.310Z,100889.17
2018-07-17T05:22:34.905Z,100888.25
2018-07-17T05:25:06.316Z,100894.77
2018-07-17T05:27:40.238Z,100895.92
2018-07-17T05:30:17.748Z,100844.27
2018-07-17T05:32:49.530Z,100894.74
2018-07-17T05:35:19.825Z,100895.84
2018-07-17T05:37:51.141Z,100896.95
2018-07-17T05:40:22.863Z,100900.75
2018-07-17T05:42:53.553Z,100902.81
2018-07-17T05:45:24.709Z,100902.66
2018-07-17T05:47:55.482Z,100906.14
2018-07-17T05:50:26.582Z,100909.20
2018-07-17T05:52:57.924Z,100903.06
2018-07-17T05:55:28.414Z,100905.30
2018-07-17T05:58:00.676Z,100903.70
2018-07-17T06:00:31.794Z,100906.07
2018-07-17T06:03:03.790Z,100906.27
2018-07-17T06:05:34.221Z,100903.63
2018-07-17T06:08:04.885Z,100903.94
2018-07-17T06:10:38.065Z,100907.27
2018-07-17T06:13:13.738Z,100913.47
2018-07-17T06:15:44.725Z,100913.49
2018-07-17T06:20:47.226Z,100923.14
2018-07-17T06:23:21.645Z,100917.42
2018-07-17T06:25:52.848Z,100935.61
2018-07-17T06:28:38.290Z,100929.38
2018-07-17T06:31:11.910Z,100935.00
2018-07-17T06:33:46.405Z,100933.65
2018-07-17T06:36:21.728Z,100927.21
2018-07-17T06:38:52.601Z,100929.97
2018-07-17T06:44:11.536Z,100928.92
2018-07-17T06:46:47.253Z,100941.99
2018-07-17T06:49:23.242Z,100944.73
2018-07-17T06:51:56.231Z,100941.48
2018-07-17T06:54:33.540Z,100950.07
2018-07-17T06:57:08.689Z,100944.73
2018-07-17T06:59:40.677Z,100949.14
2018-07-17T07:02:13.477Z,100955.41
2018-07-17T07:04:48.124Z,100956.55
2018-07-17T07:07:20.323Z,100958.39
2018-07-17T07:09:51.992Z,100952.55
2018-07-17T07:12:23.172Z,100951.18
2018-07-17T07:14:53.392Z,100961.12
2018-07-17T07:17:27.019Z,100957.05
2018-07-17T07:20:08.183Z,100952.20
2018-07-17T07:22:38.736Z,100951.58
2018-07-17T07:25:09.110Z,100955.23
2018-07-17T07:27:39.831Z,100953.77
2018-07-17T07:30:14.676Z,100955.98
2018-07-17T07:32:47.351Z,100954.22
2018-07-17T07:35:17.845Z,100961.20
2018-07-17T07:37:50.007Z,100956.75
2018-07-17T07:40:21.900Z,100957.20
2018-07-17T07:42:53.242Z,100960.72
2018-07-17T07:45:23.812Z,100964.05
2018-07-17T07:47:57.477Z,100971.73
2018-07-17T07:50:28.598Z,100688.47
2018-07-17T07:53:10.101Z,100968.60
2018-07-17T07:55:43.608Z,100976.02
2018-07-17T07:58:24.650Z,100972.33
2018-07-17T08:01:04.087Z,100972.25
2018-07-17T08:03:37.583Z,100974.35
2018-07-17T08:06:18.039Z,100981.98
2018-07-17T08:08:51.561Z,100982.95
2018-07-17T08:11:26.788Z,100982.44
2018-07-17T08:13:58.556Z,100975.89
2018-07-17T08:16:35.496Z,100978.64
2018-07-17T08:19:12.701Z,100981.50
2018-07-17T08:21:45.693Z,100978.05
2018-07-17T08:24:20.642Z,100981.05
2018-07-17T08:26:53.042Z,100981.45
2018-07-17T08:29:24.669Z,100987.11
2018-07-17T08:32:02.308Z,100986.20
2018-07-17T08:34:38.080Z,100986.05
2018-07-17T08:37:17.474Z,100986.75
2018-07-17T08:39:48.316Z,100985.36
2018-07-17T08:42:23.112Z,100981.45
2018-07-17T08:44:58.852Z,100980.38
2018-07-17T08:47:40.761Z,100986.13
2018-07-17T08:50:14.999Z,100988.98
2018-07-17T08:52:46.549Z,100990.16
2018-07-17T08:55:17.914Z,100987.84
2018-07-17T08:57:49.436Z,100988.64
2018-07-17T09:00:34.350Z,100938.36
2018-07-17T09:03:11.535Z,100992.34
2018-07-17T09:05:49.526Z,100994.76
2018-07-17T09:08:31.420Z,100991.11
2018-07-17T09:11:09.145Z,100991.19
2018-07-17T09:13:39.724Z,100993.63
2018-07-17T09:16:28.670Z,100996.59
2018-07-17T09:19:12.534Z,100998.16
2018-07-17T09:21:51.257Z,100998.88
2018-07-17T09:24:25.461Z,101003.83
2018-07-17T09:26:56.092Z,100996.87
2018-07-17T09:29:33.569Z,100997.73
2018-07-17T09:32:05.442Z,101000.15
2018-07-17T09:34:43.343Z,101008.16
2018-07-17T09:37:26.261Z,101008.16
2018-07-17T09:40:05.752Z,101007.52
2018-07-17T09:42:38.833Z,101005.00
2018-07-17T09:47:47.095Z,101001.77
2018-07-17T09:50:23.199Z,101001.59
2018-07-17T09:52:56.762Z,101003.53
2018-07-17T09:55:29.723Z,101003.40
2018-07-17T09:58:02.459Z,101007.34
2018-07-17T10:00:37.420Z,101009.17
2018-07-17T10:03:13.535Z,101014.47
2018-07-17T10:05:45.170Z,101015.76
2018-07-17T10:08:42.182Z,101013.56
2018-07-17T10:11:18.412Z,101018.51
2018-07-17T10:13:53.348Z,101014.55
2018-07-17T10:16:33.434Z,101013.39
2018-07-17T10:19:08.475Z,101023.81
2018-07-17T10:21:39.306Z,101016.70
2018-07-17T10:24:11.733Z,101024.66
2018-07-17T10:26:42.575Z,101013.26
2018-07-17T10:29:23.366Z,101025.38
2018-07-17T10:31:56.236Z,101023.02
2018-07-17T10:37:18.223Z,101016.66
2018-07-17T10:39:50.083Z,101009.66
2018-07-17T10:42:21.259Z,101011.12
2018-07-17T10:44:57.322Z,101012.17
2018-07-17T10:47:34.790Z,101005.09
2018-07-17T10:50:09.814Z,101010.84
2018-07-17T10:52:49.321Z,101012.89
2018-07-17T10:55:30.923Z,101001.34
2018-07-17T10:58:08.513Z,101004.73
2018-07-17T11:00:42.930Z,101015.34
2018-07-17T11:03:15.200Z,101003.08
2018-07-17T11:05:51.624Z,101000.39
2018-07-17T11:08:26.360Z,100992.59
2018-07-17T11:13:46.429Z,100995.89
2018-07-17T11:16:19.377Z,100989.70
2018-07-17T11:18:51.688Z,100989.63
2018-07-17T11:21:26.680Z,100992.52
2018-07-17T11:23:58.669Z,100982.17
2018-07-17T11:26:48.160Z,100991.59
2018-07-17T11:29:20.808Z,100980.06
2018-07-17T11:31:53.970Z,100988.34
2018-07-17T11:34:25.293Z,100979.28
2018-07-17T11:37:00.588Z,100980.05
2018-07-17T11:39:37.239Z,100988.83
2018-07-17T11:42:09.849Z,100974.12
2018-07-17T11:47:48.963Z,100978.25
2018-07-17T11:50:21.027Z,100972.69
2018-07-17T11:55:46.743Z,100977.45
2018-07-17T11:58:25.174Z,100976.67
2018-07-17T12:00:56.606Z,100971.14
2018-07-17T12:03:29.679Z,100966.59
2018-07-17T12:06:07.132Z,100970.48
2018-07-17T12:08:41.053Z,100975.63
2018-07-17T12:11:13.257Z,100969.20
2018-07-17T12:13:53.911Z,100969.14
2018-07-17T12:16:26.580Z,100968.91
2018-07-17T12:19:00.548Z,100971.12
2018-07-17T12:21:32.535Z,100968.86
2018-07-17T12:24:11.960Z,100977.00
2018-07-17T12:26:47.916Z,100973.38
2018-07-17T12:29:28.243Z,100976.63
2018-07-17T12:32:07.556Z,100972.45
2018-07-17T12:34:39.317Z,100968.66
2018-07-17T12:37:27.757Z,100975.03
2018-07-17T12:39:59.202Z,100974.66
2018-07-17T12:42:37.743Z,100976.34
2018-07-17T12:47:59.148Z,100970.83
2018-07-17T12:50:32.507Z,100970.78
2018-07-17T12:53:05.358Z,100967.69
2018-07-17T12:55:37.026Z,100962.97
2018-07-17T12:58:09.292Z,100961.27
2018-07-17T13:00:40.378Z,100952.05
2018-07-17T13:03:13.845Z,100964.80
2018-07-17T13:05:50.176Z,100961.04
2018-07-17T13:08:21.477Z,100962.21
2018-07-17T13:10:57.018Z,100966.24
2018-07-17T13:13:28.355Z,100960.96
2018-07-17T13:18:41.301Z,100960.95
2018-07-17T13:21:12.758Z,100955.30
2018-07-17T13:23:43.398Z,100956.88
2018-07-17T13:26:18.465Z,100954.16
2018-07-17T13:28:56.491Z,100907.42
2018-07-17T13:31:39.320Z,100949.55
2018-07-17T13:34:14.707Z,100954.70
2018-07-17T13:36:51.813Z,100955.73
2018-07-17T13:39:24.161Z,100955.35
2018-07-17T13:41:54.649Z,100961.14
2018-07-17T13:44:29.735Z,100953.67
2018-07-17T13:47:10.764Z,100958.09
2018-07-17T13:49:41.804Z,100949.61
2018-07-17T13:52:13.056Z,100951.32
2018-07-17T13:54:49.764Z,100950.81
2018-07-17T13:57:21.895Z,100942.42
2018-07-17T13:59:56.984Z,100953.75
2018-07-17T14:02:36.838Z,100945.09
2018-07-17T14:05:10.041Z,100950.16
2018-07-17T14:07:43.629Z,100936.48
2018-07-17T14:10:17.034Z,100946.43
2018-07-17T14:12:48.093Z,100949.42
2018-07-17T14:15:22.807Z,100949.26
2018-07-17T14:17:56.135Z,100940.53
2018-07-17T14:20:32.640Z,100898.73
2018-07-17T14:23:04.310Z,100955.72
2018-07-17T14:25:35.899Z,100947.08
2018-07-17T14:28:07.661Z,100942.02
2018-07-17T14:30:39.050Z,100950.02
2018-07-17T14:33:10.305Z,100949.94
2018-07-17T14:35:42.127Z,100954.22
2018-07-17T14:38:14.489Z,100948.84
2018-07-17T14:40:50.508Z,100943.39
2018-07-17T14:43:30.608Z,100943.73
2018-07-17T14:46:04.533Z,100937.91
2018-07-17T14:48:41.012Z,100942.39
2018-07-17T14:51:13.660Z,100942.64
2018-07-17T14:53:46.870Z,100948.98
2018-07-17T14:56:19.075Z,100942.89
2018-07-17T14:58:51.777Z,100945.84
2018-07-17T15:01:24.024Z,100937.81
2018-07-17T15:03:57.251Z,100943.67
2018-07-17T15:06:28.443Z,100948.84
2018-07-17T15:09:01.265Z,100943.52
2018-07-17T15:11:31.844Z,100939.80
2018-07-17T15:14:07.480Z,100940.80
2018-07-17T15:16:41.446Z,100942.30
2018-07-17T15:19:19.251Z,100942.77
2018-07-17T15:22:11.778Z,100941.23
2018-07-17T15:24:52.735Z,100949.36
2018-07-17T15:27:25.738Z,100950.45
2018-07-17T15:29:56.228Z,100951.84
2018-07-17T15:32:27.317Z,100944.34
2018-07-17T15:35:32.912Z,100953.50
2018-07-17T15:38:03.528Z,100948.02
2018-07-17T15:41:05.441Z,100942.81
2018-07-17T15:43:49.715Z,100941.19
2018-07-17T15:46:22.920Z,100947.01
2018-07-17T15:48:58.247Z,100947.30
2018-07-17T15:51:30.589Z,100949.75
2018-07-17T15:54:02.413Z,100945.28
2018-07-17T15:56:34.944Z,100943.95
2018-07-17T15:59:05.888Z,100954.16
2018-07-17T16:01:38.666Z,100949.21
2018-07-17T16:04:19.230Z,100952.23
2018-07-17T16:06:53.793Z,100949.75
2018-07-17T16:09:28.488Z,100961.80
2018-07-17T16:11:59.145Z,100958.73
2018-07-17T16:14:38.534Z,100958.05
2018-07-17T16:17:10.316Z,100951.23
2018-07-17T16:19:41.661Z,100952.98
2018-07-17T16:22:13.329Z,100957.41
2018-07-17T16:25:01.325Z,100958.00
2018-07-17T16:27:34.288Z,100952.10
2018-07-17T16:30:19.268Z,100961.48
2018-07-17T16:33:00.220Z,100952.92
2018-07-17T16:35:32.097Z,100947.39
2018-07-17T16:38:05.950Z,100957.77
2018-07-17T16:40:37.240Z,100958.85
2018-07-17T16:44:46.652Z,100960.42
2018-07-17T16:47:22.445Z,100972.47
2018-07-17T16:50:01.130Z,100966.67
2018-07-17T16:52:33.306Z,100964.81
2018-07-17T16:55:08.036Z,100971.09
2018-07-17T16:57:40.580Z,100972.28
2018-07-17T17:00:19.495Z,100970.83
2018-07-17T17:02:52.563Z,100971.06
2018-07-17T17:05:25.100Z,100968.05
2018-07-17T17:08:03.507Z,100967.47
2018-07-17T17:10:35.267Z,100969.70
2018-07-17T17:13:09.564Z,100968.11
2018-07-17T17:15:40.783Z,100970.90
2018-07-17T17:18:15.690Z,100964.53
2018-07-17T17:20:54.987Z,100966.34
2018-07-17T17:23:25.396Z,100965.78
2018-07-17T17:25:55.639Z,100962.60
2018-07-17T17:28:29.104Z,100970.30
2018-07-17T17:31:03.542Z,100968.24
2018-07-17T17:33:35.484Z,100964.12
2018-07-17T17:36:08.622Z,100965.53
2018-07-17T17:38:40.259Z,100963.42
2018-07-17T17:41:11.665Z,100965.83
2018-07-17T17:43:44.457Z,100973.09
2018-07-17T17:46:23.595Z,100974.55
2018-07-17T17:48:57.488Z,100978.76
2018-07-17T17:51:33.849Z,100979.92
2018-07-17T17:54:13.592Z,100984.55
2018-07-17T17:59:42.928Z,100983.98
2018-07-17T18:02:22.469Z,100987.03
2018-07-17T18:04:54.393Z,100990.25
2018-07-17T18:10:19.486Z,100991.46
2018-07-17T18:13:11.348Z,100992.95
2018-07-17T18:15:59.969Z,100994.58
2018-07-17T18:21:36.599Z,101018.39
2018-07-17T18:24:11.220Z,101022.02
2018-07-17T18:26:46.617Z,101031.31
2018-07-17T18:29:22.451Z,101036.08
2018-07-17T18:31:57.139Z,101041.04
2018-07-17T18:34:31.409Z,101040.97
2018-07-17T18:37:04.781Z,101048.48
2018-07-17T18:39:42.544Z,101054.88
2018-07-17T18:45:27.691Z,101061.98
2018-07-17T18:47:59.448Z,101069.45
2018-07-17T18:50:31.512Z,101078.09
2018-07-17T18:53:05.816Z,101083.59
2018-07-17T18:55:39.068Z,101096.83
2018-07-17T18:58:10.188Z,101104.98
2018-07-17T19:00:43.660Z,101110.53
2018-07-17T19:03:14.140Z,101112.33
2018-07-17T19:05:46.043Z,101111.91
2018-07-17T19:08:18.039Z,101118.30
2018-07-17T19:10:50.206Z,101123.97
2018-07-17T19:13:23.468Z,101124.68
2018-07-17T19:15:55.329Z,101129.14
2018-07-17T19:18:26.788Z,101126.15
2018-07-17T19:21:00.605Z,101137.80
2018-07-17T19:23:31.816Z,101143.19
2018-07-17T19:26:15.211Z,101146.36
2018-07-17T19:28:52.135Z,101149.58
2018-07-17T19:31:25.623Z,100962.01
2018-07-17T19:34:00.035Z,101148.36
2018-07-17T19:36:40.419Z,101154.56
2018-07-17T19:39:13.902Z,101154.88
2018-07-17T19:41:48.706Z,101172.33
2018-07-17T19:47:04.964Z,101175.34
2018-07-17T19:49:53.288Z,101176.70
2018-07-17T19:52:31.966Z,101191.17
2018-07-17T19:55:02.378Z,101193.44
2018-07-17T19:57:47.221Z,101196.80
2018-07-17T20:00:27.335Z,101204.45
2018-07-17T20:02:59.681Z,101204.73
2018-07-17T20:05:37.889Z,101207.33
2018-07-17T20:08:11.560Z,101205.23
2018-07-17T20:10:44.791Z,101204.81
2018-07-17T20:13:31.763Z,101215.60
2018-07-17T20:16:07.734Z,101216.20
2018-07-17T20:18:47.658Z,101220.23
2018-07-17T20:21:33.169Z,101227.78
2018-07-17T20:27:23.193Z,101228.67
2018-07-17T20:29:58.942Z,101230.90
2018-07-17T20:32:32.526Z,101235.92
2018-07-17T20:35:09.679Z,101238.12
2018-07-17T20:37:49.765Z,101243.90
2018-07-17T20:40:23.306Z,101241.49
2018-07-17T20:42:59.098Z,101240.78
2018-07-17T20:45:34.798Z,101241.75
2018-07-17T20:48:11.339Z,101245.31
2018-07-17T20:50:44.282Z,101247.59
2018-07-17T20:53:20.776Z,101250.84
2018-07-17T20:55:52.404Z,101246.15
2018-07-17T20:58:29.972Z,101245.39
2018-07-17T21:01:10.402Z,101252.39
2018-07-17T21:03:41.159Z,101251.47
2018-07-17T21:06:14.770Z,101251.73
2018-07-17T21:08:52.567Z,101251.42
2018-07-17T21:11:23.412Z,101253.32
2018-07-17T21:13:57.505Z,101257.17
2018-07-17T21:16:35.227Z,101253.44
2018-07-17T21:19:09.831Z,101261.49
2018-07-17T21:21:45.290Z,101264.13
2018-07-17T21:24:19.431Z,101268.85
2018-07-17T21:26:53.283Z,101261.17
2018-07-17T21:29:27.265Z,101270.20
2018-07-17T21:32:03.675Z,101268.31
2018-07-17T21:34:36.285Z,101271.25
2018-07-17T21:37:16.005Z,101270.83
2018-07-17T21:39:57.549Z,101282.48
2018-07-17T21:42:35.712Z,101281.11
2018-07-17T21:45:12.669Z,101281.69
2018-07-17T21:50:27.793Z,101295.05
2018-07-17T21:53:05.051Z,101297.52
2018-07-17T21:55:39.404Z,101299.10
2018-07-17T21:58:12.752Z,101301.72
2018-07-17T22:00:43.687Z,101306.31
2018-07-17T22:03:22.303Z,101298.73
2018-07-17T22:05:56.296Z,101296.33
2018-07-17T22:08:29.348Z,101300.45
2018-07-17T22:11:04.009Z,101306.69
2018-07-17T22:13:35.630Z,101304.55
2018-07-17T22:16:10.337Z,101307.92
2018-07-17T22:18:41.897Z,101308.91
2018-07-17T22:21:17.235Z,101308.14
2018-07-17T22:23:52.612Z,101307.20
2018-07-17T22:26:24.505Z,101317.77
2018-07-17T22:28:56.770Z,101322.37
2018-07-17T22:31:30.500Z,101322.27
2018-07-17T22:34:03.923Z,101318.27
2018-07-17T22:36:35.882Z,101322.04
2018-07-17T22:39:36.804Z,101322.16
2018-07-17T22:42:09.861Z,101319.61
2018-07-17T22:44:46.075Z,101319.61
2018-07-17T22:47:17.186Z,101317.75
2018-07-17T22:49:49.682Z,101316.86
2018-07-17T22:52:22.651Z,101330.38
2018-07-17T22:54:56.064Z,101326.41
2018-07-17T22:57:27.037Z,101324.17
2018-07-17T22:59:58.657Z,101325.05
2018-07-17T23:02:29.773Z,101328.15
2018-07-17T23:05:04.263Z,101325.44
2018-07-17T23:07:38.973Z,101317.75
2018-07-17T23:10:11.570Z,101325.41
2018-07-17T23:12:43.433Z,101325.44
2018-07-17T23:15:17.561Z,101325.76
2018-07-17T23:17:49.428Z,101325.28
2018-07-17T23:20:20.286Z,101337.39
2018-07-17T23:23:01.271Z,101325.60
2018-07-17T23:25:35.335Z,101327.34
2018-07-17T23:28:06.758Z,101331.94
2018-07-17T23:30:39.279Z,101323.22
2018-07-17T23:33:11.636Z,101318.17
2018-07-17T23:35:50.561Z,101325.88
2018-07-17T23:41:02.580Z,101331.98
2018-07-17T23:43:37.007Z,101328.41
2018-07-17T23:46:11.950Z,101332.75
2018-07-17T23:48:42.445Z,101334.20
2018-07-17T23:51:20.647Z,101339.17
2018-07-17T23:58:40.807Z,101337.39
